createdAt,value
2018-02-13T00:02:25.098Z,78.30
2018-02-13T00:04:51.366Z,78.10
2018-02-13T00:07:17.652Z,78.10
2018-02-13T00:09:43.924Z,78.30
2018-02-13T00:12:10.939Z,79.00
2018-02-13T00:14:37.214Z,78.70
2018-02-13T00:17:03.473Z,77.10
2018-02-13T00:19:29.742Z,77.50
2018-02-13T00:21:56.042Z,76.50
2018-02-13T00:24:22.290Z,76.70
2018-02-13T00:26:48.569Z,76.70
2018-02-13T00:29:14.825Z,76.90
2018-02-13T00:31:41.098Z,77.30
2018-02-13T00:34:07.377Z,77.50
2018-02-13T00:36:33.639Z,77.80
2018-02-13T00:39:01.054Z,79.20
2018-02-13T00:41:27.427Z,78.80
2018-02-13T00:43:53.668Z,79.40
2018-02-13T00:46:19.946Z,78.80
2018-02-13T00:48:46.205Z,78.20
2018-02-13T00:51:13.213Z,78.80
2018-02-13T00:53:39.469Z,78.00
2018-02-13T00:56:05.727Z,79.10
2018-02-13T00:58:32.005Z,79.40
2018-02-13T01:00:58.305Z,79.50
2018-02-13T01:03:25.345Z,80.10
2018-02-13T01:05:51.606Z,80.20
2018-02-13T01:08:17.885Z,79.40
2018-02-13T01:10:44.182Z,79.00
2018-02-13T01:13:10.457Z,79.50
2018-02-13T01:15:36.888Z,80.00
2018-02-13T01:18:03.156Z,79.60
2018-02-13T01:20:40.802Z,80.10
2018-02-13T01:23:08.097Z,79.60
2018-02-13T01:25:34.394Z,79.10
2018-02-13T01:28:00.685Z,79.00
2018-02-13T01:30:26.936Z,78.00
2018-02-13T01:32:53.233Z,78.70
2018-02-13T01:35:19.498Z,79.20
2018-02-13T01:37:45.749Z,79.50
2018-02-13T01:40:12.035Z,79.80
2018-02-13T01:42:38.310Z,80.10
2018-02-13T01:45:05.362Z,79.50
2018-02-13T01:47:31.609Z,79.10
2018-02-13T01:49:58.640Z,80.00
2018-02-13T01:52:25.661Z,80.50
2018-02-13T01:54:52.653Z,81.90
2018-02-13T01:57:18.905Z,80.50
2018-02-13T01:59:45.184Z,80.70
2018-02-13T02:02:11.501Z,81.50
2018-02-13T02:04:37.749Z,80.70
2018-02-13T02:07:04.057Z,80.00
2018-02-13T02:09:30.305Z,81.30
2018-02-13T02:11:56.569Z,79.90
2018-02-13T02:14:22.842Z,80.80
2018-02-13T02:16:49.111Z,80.10
2018-02-13T02:19:15.418Z,80.60
2018-02-13T02:21:41.664Z,80.80
2018-02-13T02:24:07.958Z,81.10
2018-02-13T02:26:34.210Z,81.00
2018-02-13T02:29:00.470Z,80.30
2018-02-13T02:31:26.789Z,79.60
2018-02-13T02:33:53.046Z,79.20
2018-02-13T02:36:20.076Z,80.70
2018-02-13T02:38:47.069Z,79.70
2018-02-13T02:41:13.322Z,79.50
2018-02-13T02:43:40.349Z,80.70
2018-02-13T02:46:11.133Z,80.20
2018-02-13T02:48:37.414Z,80.30
2018-02-13T02:51:03.687Z,79.70
2018-02-13T02:53:29.957Z,80.50
2018-02-13T02:55:56.243Z,81.10
2018-02-13T02:58:22.496Z,81.90
2018-02-13T03:00:49.526Z,81.60
2018-02-13T03:03:18.021Z,81.40
2018-02-13T03:05:49.395Z,80.40
2018-02-13T03:08:18.016Z,79.80
2018-02-13T03:10:47.094Z,80.00
2018-02-13T03:13:16.460Z,79.20
2018-02-13T03:15:45.781Z,79.70
2018-02-13T03:18:14.413Z,81.10
2018-02-13T03:20:40.672Z,80.30
2018-02-13T03:23:06.934Z,81.00
2018-02-13T03:25:33.207Z,82.20
2018-02-13T03:27:59.451Z,80.90
2018-02-13T03:30:25.754Z,81.40
2018-02-13T03:32:52.757Z,83.10
2018-02-13T03:35:19.030Z,82.60
2018-02-13T03:37:45.316Z,82.80
2018-02-13T03:40:12.322Z,82.50
2018-02-13T03:42:38.611Z,82.10
2018-02-13T03:45:04.883Z,81.70
2018-02-13T03:47:31.153Z,82.40
2018-02-13T03:49:57.426Z,82.50
2018-02-13T03:52:23.686Z,81.90
2018-02-13T03:54:49.958Z,82.70
2018-02-13T03:57:16.218Z,82.90
2018-02-13T03:59:42.461Z,82.50
2018-02-13T04:02:09.504Z,82.30
2018-02-13T04:04:35.801Z,82.30
2018-02-13T04:07:02.821Z,83.50
2018-02-13T04:09:29.078Z,82.80
2018-02-13T04:11:55.346Z,82.10
2018-02-13T04:14:21.636Z,82.60
2018-02-13T04:16:47.918Z,83.00
2018-02-13T04:19:14.192Z,82.80
2018-02-13T04:21:40.451Z,82.10
2018-02-13T04:24:06.774Z,82.00
2018-02-13T04:26:33.778Z,82.10
2018-02-13T04:29:00.778Z,81.90
2018-02-13T04:31:27.058Z,81.50
2018-02-13T04:33:53.314Z,81.50
2018-02-13T04:36:19.566Z,81.40
2018-02-13T04:38:45.854Z,81.70
2018-02-13T04:41:12.128Z,82.90
2018-02-13T04:43:38.426Z,82.60
2018-02-13T04:46:04.692Z,82.00
2018-02-13T04:48:30.942Z,82.20
2018-02-13T04:50:57.221Z,81.80
2018-02-13T04:53:23.496Z,81.40
2018-02-13T04:55:49.770Z,81.30
2018-02-13T04:58:16.766Z,81.70
2018-02-13T05:00:43.035Z,81.70
2018-02-13T05:03:09.305Z,81.90
2018-02-13T05:05:35.598Z,82.20
2018-02-13T05:08:01.878Z,81.50
2018-02-13T05:10:28.140Z,82.20
2018-02-13T05:12:54.416Z,81.80
2018-02-13T05:15:20.699Z,82.40
2018-02-13T05:17:47.702Z,82.30
2018-02-13T05:20:13.974Z,82.30
2018-02-13T05:22:40.236Z,82.10
2018-02-13T05:25:06.507Z,81.10
2018-02-13T05:27:32.783Z,81.00
2018-02-13T05:29:59.055Z,81.30
2018-02-13T05:32:25.377Z,82.20
2018-02-13T05:34:51.647Z,82.60
2018-02-13T05:37:17.905Z,82.40
2018-02-13T05:39:44.195Z,83.20
2018-02-13T05:42:10.455Z,83.20
2018-02-13T05:44:36.730Z,82.70
2018-02-13T05:47:03.184Z,82.60
2018-02-13T05:49:29.494Z,82.80
2018-02-13T05:51:55.790Z,83.10
2018-02-13T05:54:22.802Z,84.30
2018-02-13T05:56:49.098Z,83.60
2018-02-13T05:59:16.104Z,83.00
2018-02-13T06:01:42.379Z,82.60
2018-02-13T06:04:08.682Z,82.40
2018-02-13T06:06:35.003Z,82.40
2018-02-13T06:09:01.282Z,82.90
2018-02-13T06:11:27.529Z,82.90
2018-02-13T06:13:53.791Z,82.80
2018-02-13T06:16:20.111Z,83.20
2018-02-13T06:18:46.724Z,83.40
2018-02-13T06:21:13.775Z,84.70
2018-02-13T06:23:40.046Z,83.80
2018-02-13T06:26:06.319Z,83.20
2018-02-13T06:28:33.489Z,84.00
2018-02-13T06:31:00.495Z,84.30
2018-02-13T06:33:26.762Z,84.30
2018-02-13T06:35:53.083Z,83.30
2018-02-13T06:38:19.338Z,81.90
2018-02-13T06:40:46.338Z,82.90
2018-02-13T06:43:12.636Z,82.20
2018-02-13T06:45:38.907Z,82.20
2018-02-13T06:48:05.191Z,81.90
2018-02-13T06:50:31.470Z,81.90
2018-02-13T06:52:58.730Z,82.00
2018-02-13T06:55:25.003Z,82.10
2018-02-13T06:57:51.266Z,81.90
2018-02-13T07:00:17.546Z,82.50
2018-02-13T07:02:43.834Z,83.10
2018-02-13T07:05:10.118Z,82.90
2018-02-13T07:07:36.418Z,82.70
2018-02-13T07:10:02.718Z,81.80
2018-02-13T07:12:28.969Z,82.90
2018-02-13T07:14:55.244Z,82.70
2018-02-13T07:17:21.530Z,82.80
2018-02-13T07:19:47.801Z,82.70
2018-02-13T07:22:14.074Z,82.30
2018-02-13T07:24:40.349Z,82.70
2018-02-13T07:27:07.408Z,82.00
2018-02-13T07:29:33.665Z,82.50
2018-02-13T07:31:59.958Z,81.70
2018-02-13T07:34:26.240Z,81.40
2018-02-13T07:36:53.290Z,82.20
2018-02-13T07:39:19.574Z,81.50
2018-02-13T07:41:46.582Z,82.80
2018-02-13T07:44:12.915Z,81.00
2018-02-13T07:46:39.179Z,81.80
2018-02-13T07:49:05.438Z,81.20
2018-02-13T07:51:31.735Z,81.40
2018-02-13T07:53:57.994Z,81.00
2018-02-13T07:56:25.014Z,81.70
2018-02-13T07:58:51.307Z,81.70
2018-02-13T08:01:17.579Z,81.40
2018-02-13T08:03:43.857Z,80.70
2018-02-13T08:06:10.859Z,80.70
2018-02-13T08:08:37.167Z,80.40
2018-02-13T08:11:03.426Z,79.60
2018-02-13T08:13:30.435Z,79.00
2018-02-13T08:15:56.728Z,79.90
2018-02-13T08:18:22.996Z,80.30
2018-02-13T08:20:50.010Z,80.30
2018-02-13T08:23:16.277Z,80.30
2018-02-13T08:25:42.542Z,80.40
2018-02-13T08:28:09.577Z,80.80
2018-02-13T08:30:36.586Z,79.90
2018-02-13T08:33:02.883Z,80.00
2018-02-13T08:35:29.145Z,80.50
2018-02-13T08:37:56.169Z,79.30
2018-02-13T08:40:23.202Z,78.80
2018-02-13T08:42:49.519Z,78.20
2018-02-13T08:45:16.559Z,78.20
2018-02-13T08:47:43.565Z,78.00
2018-02-13T08:50:09.830Z,77.70
2018-02-13T08:52:36.120Z,76.90
2018-02-13T08:55:03.127Z,75.60
2018-02-13T08:57:29.431Z,74.00
2018-02-13T08:59:55.698Z,73.60
2018-02-13T09:02:21.998Z,72.90
2018-02-13T09:04:49.025Z,71.40
2018-02-13T09:07:16.071Z,70.80
2018-02-13T09:09:42.422Z,69.70
2018-02-13T09:12:08.694Z,70.30
2018-02-13T09:14:35.694Z,70.40
2018-02-13T09:17:01.979Z,69.80
2018-02-13T09:19:28.246Z,69.20
2018-02-13T09:21:54.518Z,68.50
2018-02-13T09:24:20.782Z,67.70
2018-02-13T09:26:47.777Z,65.30
2018-02-13T09:29:14.071Z,64.00
2018-02-13T09:31:40.326Z,63.40
2018-02-13T09:34:06.614Z,62.50
2018-02-13T09:36:32.881Z,63.50
2018-02-13T09:38:59.893Z,62.20
2018-02-13T09:41:26.229Z,61.90
2018-02-13T09:43:52.470Z,61.80
2018-02-13T09:46:18.790Z,60.00
2018-02-13T09:48:45.055Z,61.00
2018-02-13T09:51:11.313Z,60.40
2018-02-13T09:53:37.590Z,60.10
2018-02-13T09:56:03.870Z,59.20
2018-02-13T09:58:30.167Z,59.50
2018-02-13T10:00:56.440Z,59.50
2018-02-13T10:03:23.452Z,58.90
2018-02-13T10:05:49.763Z,58.40
2018-02-13T10:08:16.038Z,58.80
2018-02-13T10:10:42.343Z,58.60
2018-02-13T10:13:08.605Z,57.80
2018-02-13T10:15:34.879Z,57.40
2018-02-13T10:18:01.191Z,58.10
2018-02-13T10:20:27.484Z,56.50
2018-02-13T10:22:54.553Z,55.80
2018-02-13T10:25:20.830Z,55.70
2018-02-13T10:27:47.837Z,56.70
2018-02-13T10:30:14.134Z,56.20
2018-02-13T10:32:40.395Z,54.70
2018-02-13T10:35:07.447Z,53.80
2018-02-13T10:37:33.709Z,53.40
2018-02-13T10:39:59.979Z,53.40
2018-02-13T10:42:26.270Z,51.20
2018-02-13T10:44:53.278Z,49.70
2018-02-13T10:47:19.612Z,49.00
2018-02-13T10:49:46.658Z,49.10
2018-02-13T10:52:13.654Z,50.00
2018-02-13T10:54:39.938Z,49.70
2018-02-13T10:57:06.222Z,47.00
2018-02-13T10:59:33.221Z,45.80
2018-02-13T11:02:05.545Z,45.10
2018-02-13T11:04:31.820Z,45.00
2018-02-13T11:06:58.840Z,42.40
2018-02-13T11:09:25.129Z,41.50
2018-02-13T11:11:51.420Z,41.30
2018-02-13T11:14:17.721Z,38.70
2018-02-13T11:16:44.062Z,38.90
2018-02-13T11:19:10.338Z,39.80
2018-02-13T11:21:36.643Z,37.90
2018-02-13T11:24:02.966Z,35.90
2018-02-13T11:26:29.957Z,36.10
2018-02-13T11:28:56.243Z,35.60
2018-02-13T11:31:22.522Z,35.00
2018-02-13T11:33:49.550Z,38.10
2018-02-13T11:36:16.558Z,37.20
2018-02-13T11:38:42.829Z,36.30
2018-02-13T11:41:09.111Z,36.10
2018-02-13T11:43:36.116Z,34.90
2018-02-13T11:46:02.401Z,34.50
2018-02-13T11:48:28.666Z,34.50
2018-02-13T11:50:54.918Z,34.60
2018-02-13T11:53:21.214Z,33.50
2018-02-13T11:55:48.215Z,35.80
2018-02-13T11:58:14.508Z,35.20
2018-02-13T12:00:40.863Z,35.40
2018-02-13T12:03:07.870Z,36.30
2018-02-13T12:05:34.151Z,35.60
2018-02-13T12:08:00.409Z,35.50
2018-02-13T12:10:26.710Z,34.60
2018-02-13T12:12:53.024Z,34.10
2018-02-13T12:15:19.287Z,34.70
2018-02-13T12:17:45.575Z,35.20
2018-02-13T12:20:11.857Z,35.50
2018-02-13T12:22:38.133Z,36.50
2018-02-13T12:25:04.405Z,35.30
2018-02-13T12:27:30.695Z,35.20
2018-02-13T12:29:57.015Z,37.30
2018-02-13T12:32:23.287Z,39.20
2018-02-13T12:34:50.415Z,37.60
2018-02-13T12:37:17.446Z,36.70
2018-02-13T12:39:44.479Z,37.00
2018-02-13T12:42:11.518Z,34.80
2018-02-13T12:44:38.523Z,35.80
2018-02-13T12:47:04.818Z,35.30
2018-02-13T12:49:31.090Z,36.10
2018-02-13T12:51:57.370Z,35.80
2018-02-13T12:54:23.694Z,35.50
2018-02-13T12:56:49.982Z,37.00
2018-02-13T12:59:16.300Z,37.20
2018-02-13T13:01:42.610Z,37.30
2018-02-13T13:04:11.762Z,38.10
2018-02-13T13:06:38.053Z,39.70
2018-02-13T13:09:05.058Z,38.40
2018-02-13T13:11:31.353Z,37.90
2018-02-13T13:13:57.674Z,34.40
2018-02-13T13:16:23.970Z,33.40
2018-02-13T13:18:50.288Z,31.80
2018-02-13T13:21:16.551Z,32.30
2018-02-13T13:23:42.843Z,31.40
2018-02-13T13:26:09.157Z,32.30
2018-02-13T13:28:35.422Z,31.80
2018-02-13T13:31:01.735Z,32.20
2018-02-13T13:33:28.027Z,31.10
2018-02-13T13:35:54.569Z,29.80
2018-02-13T13:38:21.600Z,31.20
2018-02-13T13:40:48.604Z,30.80
2018-02-13T13:43:14.890Z,30.40
2018-02-13T13:45:41.182Z,30.70
2018-02-13T13:48:07.497Z,30.40
2018-02-13T13:50:33.790Z,29.70
2018-02-13T13:53:00.071Z,29.20
2018-02-13T13:55:26.361Z,28.80
2018-02-13T13:57:52.645Z,27.60
2018-02-13T14:00:19.162Z,28.20
2018-02-13T14:02:46.166Z,27.80
2018-02-13T14:05:12.516Z,27.50
2018-02-13T14:07:38.831Z,28.30
2018-02-13T14:10:05.120Z,27.80
2018-02-13T14:12:31.431Z,27.80
2018-02-13T14:14:57.754Z,29.00
2018-02-13T14:17:34.017Z,28.80
2018-02-13T14:20:00.308Z,28.70
2018-02-13T14:22:27.314Z,32.30
2018-02-13T14:24:53.590Z,31.90
2018-02-13T14:27:19.891Z,34.40
2018-02-13T14:29:46.182Z,37.00
2018-02-13T14:32:12.567Z,38.20
2018-02-13T14:34:38.829Z,39.20
2018-02-13T14:37:05.898Z,41.70
2018-02-13T14:39:32.163Z,41.40
2018-02-13T14:41:58.493Z,41.70
2018-02-13T14:44:25.483Z,43.10
2018-02-13T14:46:51.763Z,42.70
2018-02-13T14:49:18.051Z,43.40
2018-02-13T14:51:44.313Z,43.70
2018-02-13T14:54:10.594Z,43.00
2018-02-13T14:56:36.941Z,43.20
2018-02-13T14:59:03.222Z,43.80
2018-02-13T15:01:29.516Z,44.20
2018-02-13T15:03:56.530Z,45.60
2018-02-13T15:06:23.591Z,45.60
2018-02-13T15:08:49.863Z,45.40
2018-02-13T15:11:16.139Z,45.50
2018-02-13T15:13:42.449Z,45.80
2018-02-13T15:16:08.770Z,45.90
2018-02-13T15:18:37.045Z,45.70
2018-02-13T15:21:03.315Z,44.80
2018-02-13T15:23:30.327Z,46.40
2018-02-13T15:25:56.618Z,45.90
2018-02-13T15:28:22.876Z,46.70
2018-02-13T15:30:49.927Z,47.40
2018-02-13T15:33:16.226Z,46.90
2018-02-13T15:35:42.482Z,46.30
2018-02-13T15:38:09.619Z,47.40
2018-02-13T15:40:35.882Z,47.00
2018-02-13T15:43:02.882Z,48.00
2018-02-13T15:45:29.191Z,47.70
2018-02-13T15:47:55.475Z,47.60
2018-02-13T15:50:21.730Z,47.80
2018-02-13T15:52:48.007Z,47.30
2018-02-13T15:55:14.271Z,46.80
2018-02-13T15:57:40.559Z,46.90
2018-02-13T16:00:06.849Z,47.70
2018-02-13T16:02:33.114Z,47.60
2018-02-13T16:04:59.410Z,48.00
2018-02-13T16:07:25.714Z,49.10
2018-02-13T16:09:52.018Z,49.10
2018-02-13T16:12:18.353Z,49.10
2018-02-13T16:14:44.615Z,49.50
2018-02-13T16:17:11.650Z,50.30
2018-02-13T16:19:37.926Z,50.00
2018-02-13T16:22:04.201Z,49.20
2018-02-13T16:24:30.454Z,49.50
2018-02-13T16:26:56.730Z,50.00
2018-02-13T16:29:23.035Z,50.50
2018-02-13T16:31:49.302Z,50.60
2018-02-13T16:34:15.604Z,50.70
2018-02-13T16:36:41.943Z,51.40
2018-02-13T16:39:08.214Z,51.00
2018-02-13T16:41:34.501Z,51.00
2018-02-13T16:44:00.767Z,51.30
2018-02-13T16:46:27.158Z,51.30
2018-02-13T16:48:53.444Z,51.70
2018-02-13T16:51:20.481Z,53.00
2018-02-13T16:53:47.525Z,53.20
2018-02-13T16:56:13.790Z,52.80
2018-02-13T16:58:40.071Z,53.50
2018-02-13T17:01:06.346Z,53.80
2018-02-13T17:03:33.363Z,54.30
2018-02-13T17:05:59.722Z,53.70
2018-02-13T17:08:26.002Z,54.30
2018-02-13T17:10:52.282Z,54.40
2018-02-13T17:13:18.559Z,55.70
2018-02-13T17:15:44.823Z,55.10
2018-02-13T17:18:11.147Z,55.60
2018-02-13T17:20:37.415Z,55.50
2018-02-13T17:23:03.709Z,55.60
2018-02-13T17:25:30.698Z,56.70
2018-02-13T17:27:56.966Z,56.60
2018-02-13T17:30:23.251Z,56.50
2018-02-13T17:32:49.532Z,56.40
2018-02-13T17:35:15.814Z,56.10
2018-02-13T17:37:42.066Z,56.40
2018-02-13T17:40:08.354Z,55.60
2018-02-13T17:42:34.630Z,56.50
2018-02-13T17:45:00.887Z,57.10
2018-02-13T17:47:27.171Z,57.20
2018-02-13T17:49:54.167Z,58.80
2018-02-13T17:52:20.429Z,58.40
2018-02-13T17:54:46.715Z,58.20
2018-02-13T17:57:13.006Z,58.00
2018-02-13T17:59:39.292Z,58.50
2018-02-13T18:02:05.563Z,59.80
2018-02-13T18:04:32.585Z,60.40
2018-02-13T18:06:58.940Z,59.80
2018-02-13T18:09:25.167Z,59.90
2018-02-13T18:11:51.458Z,60.90
2018-02-13T18:14:18.474Z,61.60
2018-02-13T18:16:44.725Z,61.10
2018-02-13T18:19:11.034Z,62.80
2018-02-13T18:21:37.307Z,60.90
2018-02-13T18:24:03.588Z,59.50
2018-02-13T18:26:29.853Z,62.80
2018-02-13T18:28:56.102Z,60.70
2018-02-13T18:31:22.382Z,61.10
2018-02-13T18:33:48.646Z,60.60
2018-02-13T18:36:14.942Z,62.00
2018-02-13T18:38:41.199Z,61.30
2018-02-13T18:41:07.467Z,60.80
2018-02-13T18:43:33.759Z,59.80
2018-02-13T18:46:00.035Z,60.20
2018-02-13T18:48:26.334Z,62.20
2018-02-13T18:50:52.643Z,61.40
2018-02-13T18:53:18.901Z,62.90
2018-02-13T18:55:45.206Z,63.10
2018-02-13T18:58:11.487Z,61.30
2018-02-13T19:00:37.836Z,62.10
2018-02-13T19:03:04.084Z,61.10
2018-02-13T19:05:31.091Z,61.40
2018-02-13T19:07:57.444Z,61.10
2018-02-13T19:10:23.735Z,59.70
2018-02-13T19:12:50.016Z,60.70
2018-02-13T19:15:16.319Z,60.50
2018-02-13T19:17:42.570Z,60.10
2018-02-13T19:20:08.890Z,60.30
2018-02-13T19:22:35.198Z,60.80
2018-02-13T19:25:01.500Z,60.60
2018-02-13T19:27:27.753Z,61.00
2018-02-13T19:29:54.757Z,62.60
2018-02-13T19:32:21.102Z,62.10
2018-02-13T19:34:48.100Z,64.50
2018-02-13T19:37:14.382Z,63.90
2018-02-13T19:39:40.679Z,64.10
2018-02-13T19:42:06.974Z,62.50
2018-02-13T19:44:33.978Z,61.60
2018-02-13T19:47:00.329Z,61.10
2018-02-13T19:49:27.332Z,60.00
2018-02-13T19:51:53.635Z,59.70
2018-02-13T19:54:19.960Z,60.30
2018-02-13T19:56:46.233Z,62.10
2018-02-13T19:59:12.522Z,61.80
2018-02-13T20:01:39.546Z,61.30
2018-02-13T20:04:06.564Z,61.30
2018-02-13T20:06:39.150Z,61.00
2018-02-13T20:09:06.215Z,61.60
2018-02-13T20:11:33.279Z,61.30
2018-02-13T20:13:59.604Z,60.50
2018-02-13T20:16:25.895Z,60.60
2018-02-13T20:18:52.426Z,60.70
2018-02-13T20:21:18.739Z,60.80
2018-02-13T20:23:45.026Z,62.40
2018-02-13T20:26:11.299Z,60.90
2018-02-13T20:28:37.563Z,63.30
2018-02-13T20:31:03.876Z,61.00
2018-02-13T20:33:30.129Z,61.60
2018-02-13T20:35:56.436Z,60.90
2018-02-13T20:38:22.892Z,60.70
2018-02-13T20:40:51.722Z,62.10
2018-02-13T20:43:19.074Z,62.20
2018-02-13T20:45:46.433Z,62.80
2018-02-13T20:48:13.611Z,63.70
2018-02-13T20:50:39.962Z,63.00
2018-02-13T20:53:07.171Z,63.80
2018-02-13T20:55:33.556Z,63.40
2018-02-13T20:57:59.846Z,62.70
2018-02-13T21:00:26.158Z,63.20
2018-02-13T21:02:52.496Z,62.20
2018-02-13T21:05:18.808Z,63.00
2018-02-13T21:07:45.098Z,62.70
2018-02-13T21:10:12.110Z,62.60
2018-02-13T21:12:38.449Z,62.30
2018-02-13T21:15:05.530Z,64.80
2018-02-13T21:17:31.814Z,64.20
2018-02-13T21:19:58.094Z,64.00
2018-02-13T21:22:24.428Z,64.20
2018-02-13T21:24:51.442Z,64.40
2018-02-13T21:27:17.702Z,64.40
2018-02-13T21:29:43.996Z,64.00
2018-02-13T21:32:10.379Z,65.00
2018-02-13T21:34:36.708Z,64.90
2018-02-13T21:37:03.094Z,64.10
2018-02-13T21:39:29.393Z,64.50
2018-02-13T21:41:55.659Z,64.40
2018-02-13T21:44:21.948Z,64.50
2018-02-13T21:46:48.226Z,64.10
2018-02-13T21:49:14.519Z,65.40
2018-02-13T21:51:40.816Z,65.30
2018-02-13T21:54:07.854Z,64.30
2018-02-13T21:56:34.956Z,65.20
2018-02-13T21:59:01.262Z,65.50
2018-02-13T22:01:27.588Z,65.00
2018-02-13T22:03:53.902Z,64.80
2018-02-13T22:06:20.182Z,65.00
2018-02-13T22:08:46.470Z,65.00
2018-02-13T22:11:13.478Z,64.80
2018-02-13T22:13:39.774Z,63.70
2018-02-13T22:16:06.064Z,65.20
2018-02-13T22:18:33.414Z,65.30
2018-02-13T22:20:59.698Z,66.00
2018-02-13T22:23:25.986Z,65.90
2018-02-13T22:25:52.278Z,65.20
2018-02-13T22:28:18.539Z,65.20
2018-02-13T22:30:45.535Z,65.70
2018-02-13T22:33:11.813Z,64.80
2018-02-13T22:35:38.066Z,66.00
2018-02-13T22:38:04.358Z,67.30
2018-02-13T22:40:30.627Z,65.20
2018-02-13T22:42:57.622Z,66.30
2018-02-13T22:45:23.939Z,66.20
2018-02-13T22:47:50.219Z,66.00
2018-02-13T22:50:16.512Z,66.40
2018-02-13T22:52:43.531Z,66.30
2018-02-13T22:55:10.538Z,66.70
2018-02-13T22:57:36.842Z,66.00
2018-02-13T23:00:03.186Z,65.40
2018-02-13T23:02:29.482Z,66.30
2018-02-13T23:04:55.759Z,67.00
2018-02-13T23:07:22.016Z,66.00
2018-02-13T23:09:48.501Z,66.20
2018-02-13T23:12:14.823Z,66.50
2018-02-13T23:14:41.285Z,66.90
2018-02-13T23:17:07.965Z,66.20
2018-02-13T23:19:34.266Z,66.40
2018-02-13T23:22:00.551Z,65.30
2018-02-13T23:24:27.612Z,66.80
2018-02-13T23:26:54.033Z,66.30
2018-02-13T23:29:20.305Z,65.50
2018-02-13T23:31:46.570Z,66.60
2018-02-13T23:34:12.852Z,66.10
2018-02-13T23:36:39.850Z,66.90
2018-02-13T23:39:06.145Z,66.10
2018-02-13T23:41:32.402Z,66.70
2018-02-13T23:43:58.659Z,66.10
2018-02-13T23:46:24.954Z,66.10
2018-02-13T23:48:51.218Z,66.70
2018-02-13T23:51:17.517Z,66.70
2018-02-13T23:53:43.799Z,65.90
2018-02-13T23:56:12.673Z,66.30
2018-02-13T23:58:38.963Z,66.60
